Time;durP1;ratioP1;P1;durP2;ratioP2;P2;SDS_P1;SDS_P2;PMS_P1;PMS_P2;Temp;Humidity;BMP_temperature;BMP_pressure;BME280_temperature;BME280_humidity;BME280_pressure;Samples;Min_cycle;Max_cycle;Signal;HPM_P1;HPM_P2
2022/04/09 00:00:09;;;;;;;0.10;0.10;;;3.60;99.90;12.80;88045.00;;;;5012066;28;20203;-70
2022/04/09 00:02:38;;;;;;;0.00;0.00;;;3.60;99.90;12.80;88045.00;;;;5012866;28;20195;-69
2022/04/09 00:05:11;;;;;;;0.10;0.10;;;3.60;99.90;12.80;88045.00;;;;5012902;28;20184;-70
2022/04/09 00:07:39;;;;;;;0.10;0.10;;;3.60;99.90;12.80;88045.00;;;;5012700;28;20223;-70
2022/04/09 00:10:11;;;;;;;0.10;0.10;;;3.50;99.90;12.80;88045.00;;;;5011844;28;20214;-70
2022/04/09 00:12:44;;;;;;;0.10;0.10;;;3.50;99.90;12.80;88045.00;;;;5011841;28;20673;-69
2022/04/09 00:15:13;;;;;;;0.10;0.10;;;3.50;99.90;12.80;88045.00;;;;5004799;28;20196;-69
2022/04/09 00:17:43;;;;;;;0.10;0.10;;;3.50;99.90;12.80;88045.00;;;;5012470;28;20293;-69
2022/04/09 00:20:14;;;;;;;0.10;0.10;;;3.40;99.90;12.80;88045.00;;;;5011382;28;20200;-68
2022/04/09 00:22:44;;;;;;;0.10;0.10;;;3.40;99.90;12.80;88045.00;;;;5013162;28;20904;-68
2022/04/09 00:25:21;;;;;;;0.10;0.10;;;3.50;99.90;12.80;88045.00;;;;5014512;28;20563;-69
2022/04/09 00:27:50;;;;;;;0.10;0.10;;;3.50;99.90;12.80;88045.00;;;;5018592;28;20215;-70
2022/04/09 00:30:18;;;;;;;0.10;0.10;;;3.50;99.90;12.80;88045.00;;;;5000573;28;20233;-70
2022/04/09 00:32:47;;;;;;;0.10;0.10;;;3.40;99.90;12.80;88045.00;;;;5014535;28;20207;-69
2022/04/09 00:35:16;;;;;;;0.10;0.10;;;3.50;99.90;12.80;88045.00;;;;5016573;28;20570;-70
2022/04/09 00:37:46;;;;;;;0.10;0.10;;;3.40;99.90;12.80;88045.00;;;;5015398;28;20199;-70
2022/04/09 00:40:18;;;;;;;0.10;0.10;;;3.30;99.90;12.80;88045.00;;;;5016575;28;20199;-70
2022/04/09 00:42:46;;;;;;;0.10;0.10;;;3.10;99.90;12.80;88045.00;;;;5013303;28;20658;-69
2022/04/09 00:45:15;;;;;;;0.10;0.10;;;3.00;99.90;12.80;88045.00;;;;5012766;28;20194;-70
2022/04/09 00:47:43;;;;;;;0.10;0.10;;;3.00;99.90;12.80;88045.00;;;;5011861;28;20219;-70
2022/04/09 00:50:13;;;;;;;0.10;0.10;;;3.10;99.90;12.80;88045.00;;;;4994622;28;20207;-69
2022/04/09 00:52:48;;;;;;;0.10;0.10;;;3.00;99.90;12.80;88045.00;;;;5012252;28;20191;-69
2022/04/09 00:56:12;;;;;;;0.10;0.10;;;3.00;99.90;12.80;88045.00;;;;5001857;28;20298;-69
2022/04/09 00:58:14;;;;;;;0.10;0.10;;;3.00;99.90;12.80;88045.00;;;;5013456;28;20191;-70
2022/04/09 01:00:44;;;;;;;0.10;0.10;;;2.90;99.90;12.80;88045.00;;;;5015032;28;20203;-70
2022/04/09 01:03:16;;;;;;;0.10;0.10;;;3.00;99.90;12.80;88045.00;;;;5016834;28;20278;-71
2022/04/09 01:05:45;;;;;;;0.10;0.10;;;2.90;99.90;12.80;88045.00;;;;5011935;28;20224;-70
2022/04/09 01:08:15;;;;;;;0.10;0.10;;;3.00;99.90;12.80;88045.00;;;;4994698;28;20663;-69
2022/04/09 01:10:47;;;;;;;0.10;0.10;;;3.10;99.90;12.80;88045.00;;;;5011223;28;20195;-69
2022/04/09 01:13:16;;;;;;;0.10;0.10;;;3.10;99.90;12.80;88045.00;;;;4990239;28;20668;-69
2022/04/09 01:15:44;;;;;;;0.10;0.10;;;3.30;99.90;12.80;88045.00;;;;4997966;28;20693;-70
2022/04/09 01:18:15;;;;;;;0.05;0.05;;;3.40;99.90;12.80;88045.00;;;;4998569;28;20569;-70
2022/04/09 01:20:47;;;;;;;0.00;0.00;;;3.50;99.90;12.80;88045.00;;;;5014813;28;20264;-70
2022/04/09 01:23:17;;;;;;;0.00;0.00;;;3.60;99.90;12.80;88045.00;;;;5016501;28;20661;-70
2022/04/09 01:25:45;;;;;;;0.10;0.10;;;3.60;99.90;12.80;88045.00;;;;5016147;28;20219;-71
2022/04/09 01:28:14;;;;;;;0.10;0.10;;;3.60;99.90;12.80;88045.00;;;;5016100;28;20223;-71
2022/04/09 01:30:43;;;;;;;0.10;0.10;;;3.70;99.90;12.80;88045.00;;;;5015530;28;20200;-71
2022/04/09 01:33:15;;;;;;;0.10;0.10;;;3.70;99.90;12.80;88045.00;;;;4998916;28;20199;-70
2022/04/09 01:35:44;;;;;;;0.10;0.10;;;3.80;99.90;12.80;88045.00;;;;5016302;28;20216;-70
2022/04/09 01:38:12;;;;;;;0.08;0.08;;;3.80;99.90;12.80;88045.00;;;;4996676;28;20689;-70
2022/04/09 01:40:42;;;;;;;0.10;0.10;;;3.80;99.90;12.80;88045.00;;;;4997694;28;20199;-70
2022/04/09 01:43:11;;;;;;;0.10;0.10;;;3.80;99.90;12.80;88045.00;;;;4998027;28;20348;-70
2022/04/09 01:45:39;;;;;;;0.10;0.10;;;3.90;99.90;12.80;88045.00;;;;4997502;28;20286;-70
2022/04/09 01:48:15;;;;;;;0.10;0.10;;;3.80;99.90;12.80;88045.00;;;;4997750;28;20246;-70
2022/04/09 01:50:43;;;;;;;0.00;0.00;;;3.90;99.90;12.80;88045.00;;;;4997631;28;20215;-70
2022/04/09 01:53:12;;;;;;;0.10;0.10;;;4.00;99.90;12.80;88045.00;;;;5014151;28;20234;-70
2022/04/09 01:55:43;;;;;;;0.10;0.10;;;3.90;99.90;12.80;88045.00;;;;4996275;28;20266;-70
2022/04/09 01:58:11;;;;;;;0.00;0.00;;;4.00;99.90;12.80;88045.00;;;;4989023;28;20196;-70
2022/04/09 02:00:43;;;;;;;0.10;0.10;;;3.90;99.90;12.80;88045.00;;;;4979991;28;20215;-70
2022/04/09 02:03:11;;;;;;;0.10;0.10;;;3.80;99.90;12.80;88045.00;;;;4995607;28;20220;-69
2022/04/09 02:05:41;;;;;;;0.10;0.10;;;3.80;99.90;12.80;88045.00;;;;4993634;28;20837;-69
2022/04/09 02:08:10;;;;;;;0.10;0.10;;;3.70;99.90;12.80;88045.00;;;;5003217;28;20224;-70
2022/04/09 02:10:38;;;;;;;0.10;0.10;;;3.40;99.90;12.80;88045.00;;;;5013603;28;20226;-69
2022/04/09 02:13:13;;;;;;;0.03;0.03;;;3.20;99.90;12.80;88045.00;;;;5014070;28;20769;-69
2022/04/09 02:15:42;;;;;;;0.00;0.00;;;3.10;99.90;12.80;88045.00;;;;5000864;28;20737;-69
2022/04/09 02:18:11;;;;;;;0.08;0.08;;;3.10;99.90;12.80;88045.00;;;;4994517;28;20200;-69
2022/04/09 02:20:39;;;;;;;0.10;0.10;;;3.10;99.90;12.80;88045.00;;;;4993837;28;20670;-69
2022/04/09 02:23:07;;;;;;;0.10;0.10;;;3.10;99.90;12.80;88045.00;;;;4998527;28;20216;-69
2022/04/09 02:25:35;;;;;;;0.10;0.10;;;3.10;99.90;12.80;88045.00;;;;4994767;28;20212;-68
2022/04/09 02:28:03;;;;;;;0.10;0.10;;;3.20;99.90;12.80;88045.00;;;;5004808;28;20586;-68
2022/04/09 02:30:33;;;;;;;0.10;0.10;;;3.20;99.90;12.80;88045.00;;;;5014563;28;20670;-69
2022/04/09 02:33:04;;;;;;;0.10;0.10;;;3.30;99.90;12.80;88045.00;;;;5013021;28;20286;-69
2022/04/09 02:35:37;;;;;;;0.10;0.10;;;3.30;99.90;12.80;88045.00;;;;4996730;28;20212;-69
2022/04/09 02:38:09;;;;;;;0.10;0.10;;;3.30;99.90;12.80;88045.00;;;;5012427;28;20204;-69
2022/04/09 02:40:38;;;;;;;0.10;0.10;;;3.30;99.90;12.80;88045.00;;;;4996763;28;20616;-69
2022/04/09 02:43:08;;;;;;;0.10;0.10;;;3.30;99.90;12.80;88045.00;;;;5014358;28;20202;-69
2022/04/09 02:45:38;;;;;;;0.10;0.10;;;3.30;99.90;12.80;88045.00;;;;5012743;28;20219;-69
2022/04/09 02:48:10;;;;;;;0.10;0.10;;;3.30;99.90;12.80;88045.00;;;;5013184;28;20258;-69
2022/04/09 02:50:38;;;;;;;0.10;0.10;;;3.20;99.90;12.80;88045.00;;;;4996656;28;20199;-69
2022/04/09 02:53:06;;;;;;;0.10;0.10;;;3.30;99.90;12.80;88045.00;;;;5013307;28;20211;-70
2022/04/09 02:55:34;;;;;;;0.10;0.10;;;3.40;99.90;12.80;88045.00;;;;4996352;28;20572;-69
2022/04/09 02:58:02;;;;;;;0.10;0.10;;;3.40;99.90;12.80;88045.00;;;;5014372;28;20730;-70
2022/04/09 03:00:34;;;;;;;0.10;0.10;;;3.50;99.90;12.80;88045.00;;;;4996828;28;20216;-69
2022/04/09 03:03:06;;;;;;;0.00;0.00;;;3.50;99.90;12.80;88045.00;;;;5013073;28;20199;-69
2022/04/09 03:05:56;;;;;;;0.10;0.10;;;3.50;99.90;12.80;88045.00;;;;4996827;28;20247;-69
2022/04/09 03:08:24;;;;;;;0.08;0.08;;;3.60;99.90;12.80;88045.00;;;;5012231;28;20291;-69
2022/04/09 03:10:54;;;;;;;0.10;0.10;;;3.60;99.90;12.80;88045.00;;;;4997110;28;20223;-69
2022/04/09 03:13:22;;;;;;;0.10;0.10;;;3.50;99.90;12.80;88045.00;;;;5013880;28;20632;-69
2022/04/09 03:15:50;;;;;;;0.10;0.10;;;3.50;99.90;12.80;88045.00;;;;4996240;28;20208;-69
2022/04/09 03:18:21;;;;;;;0.10;0.10;;;3.50;99.90;12.80;88045.00;;;;4996298;28;20208;-69
2022/04/09 03:20:49;;;;;;;0.10;0.10;;;3.50;99.90;12.80;88045.00;;;;5013663;28;20283;-69
2022/04/09 03:23:20;;;;;;;0.10;0.10;;;3.50;99.90;12.80;88045.00;;;;4996089;28;20670;-69
2022/04/09 03:25:52;;;;;;;0.10;0.10;;;3.50;99.90;12.80;88045.00;;;;4996145;28;20278;-69
2022/04/09 03:28:24;;;;;;;0.10;0.10;;;3.60;99.90;12.80;88045.00;;;;5016979;28;20219;-68
2022/04/09 03:30:52;;;;;;;0.10;0.10;;;3.60;99.90;12.80;88045.00;;;;4996462;28;20269;-68
2022/04/09 03:33:22;;;;;;;0.10;0.10;;;3.60;99.90;12.80;88045.00;;;;4997579;28;20658;-69
2022/04/09 03:35:57;;;;;;;0.10;0.10;;;3.70;99.90;12.80;88045.00;;;;5014056;28;20307;-69
2022/04/09 03:38:29;;;;;;;0.10;0.10;;;3.60;99.90;12.80;88045.00;;;;4997095;28;20222;-69
2022/04/09 03:40:58;;;;;;;0.10;0.10;;;3.60;99.90;12.80;88045.00;;;;4997662;28;20201;-68
2022/04/09 03:43:35;;;;;;;0.10;0.10;;;3.50;99.90;12.80;88045.00;;;;5015014;28;20614;-69
2022/04/09 03:46:04;;;;;;;0.10;0.10;;;3.50;99.90;12.80;88045.00;;;;4998159;28;20819;-69
2022/04/09 03:48:35;;;;;;;0.00;0.00;;;3.60;99.90;12.80;88045.00;;;;5015458;28;20253;-69
2022/04/09 03:51:03;;;;;;;0.10;0.10;;;3.50;99.90;12.80;88045.00;;;;5016781;28;20200;-69
2022/04/09 03:53:31;;;;;;;0.10;0.10;;;3.50;99.90;12.80;88045.00;;;;4999284;28;20202;-69
2022/04/09 03:56:03;;;;;;;0.10;0.10;;;3.40;99.90;12.80;88045.00;;;;4992680;28;20217;-69
2022/04/09 03:58:37;;;;;;;0.10;0.10;;;3.40;99.90;12.80;88045.00;;;;5016841;28;20640;-69
2022/04/09 04:01:10;;;;;;;0.10;0.10;;;3.30;99.90;12.80;88045.00;;;;5000624;28;20195;-69
2022/04/09 04:03:41;;;;;;;0.10;0.10;;;3.30;99.90;12.80;88045.00;;;;5018597;28;20267;-68
2022/04/09 04:06:09;;;;;;;0.10;0.10;;;3.30;99.90;12.80;88045.00;;;;4998488;28;20222;-68
2022/04/09 04:08:38;;;;;;;0.10;0.10;;;3.30;99.90;12.80;88045.00;;;;5015930;28;20251;-68
2022/04/09 04:11:08;;;;;;;0.10;0.10;;;3.40;99.90;12.80;88045.00;;;;4996532;28;20195;-69
2022/04/09 04:13:39;;;;;;;0.10;0.10;;;3.40;99.90;12.80;88045.00;;;;5012533;28;20231;-68
2022/04/09 04:16:10;;;;;;;0.10;0.10;;;3.40;99.90;12.80;88045.00;;;;5011670;28;20693;-69
2022/04/09 04:18:43;;;;;;;0.10;0.10;;;3.50;99.90;12.80;88045.00;;;;5010112;28;20260;-69
2022/04/09 04:21:12;;;;;;;0.10;0.10;;;3.40;99.90;12.80;88045.00;;;;4989991;28;20210;-69
2022/04/09 04:23:44;;;;;;;0.10;0.10;;;3.40;99.90;12.80;88045.00;;;;4983504;28;20320;-68
2022/04/09 04:26:17;;;;;;;0.10;0.10;;;3.50;99.90;12.80;88045.00;;;;5011048;28;20216;-69
2022/04/09 04:28:52;;;;;;;0.10;0.10;;;3.40;99.90;12.80;88045.00;;;;5012264;28;20282;-69
2022/04/09 04:31:23;;;;;;;0.10;0.10;;;3.50;99.90;12.80;88045.00;;;;4995118;28;20669;-70
2022/04/09 04:33:53;;;;;;;0.10;0.10;;;3.40;99.90;12.80;88045.00;;;;4995310;28;20269;-70
2022/04/09 04:36:22;;;;;;;0.10;0.10;;;3.50;99.90;12.80;88045.00;;;;5012484;28;20614;-70
2022/04/09 04:38:50;;;;;;;0.10;0.10;;;3.40;99.90;12.80;88045.00;;;;4994504;28;20669;-69
2022/04/09 04:41:18;;;;;;;0.10;0.10;;;3.40;99.90;12.80;88045.00;;;;4994581;28;20218;-69
2022/04/09 04:43:51;;;;;;;0.10;0.10;;;3.50;99.90;12.80;88045.00;;;;5011154;28;20658;-70
2022/04/09 04:46:22;;;;;;;0.10;0.10;;;3.50;99.90;12.80;88045.00;;;;4994479;28;20278;-70
2022/04/09 04:48:50;;;;;;;0.10;0.10;;;3.50;99.90;12.80;88045.00;;;;5008023;28;20216;-70
2022/04/09 04:51:23;;;;;;;0.10;0.10;;;3.50;99.90;12.80;88045.00;;;;4986804;28;20276;-70
2022/04/09 04:53:51;;;;;;;0.10;0.10;;;3.40;99.90;12.80;88045.00;;;;5001946;28;20686;-70
2022/04/09 04:56:21;;;;;;;0.10;0.10;;;3.40;99.90;12.80;88045.00;;;;5009223;28;20696;-70
2022/04/09 04:58:52;;;;;;;0.10;0.10;;;3.40;99.90;12.80;88045.00;;;;5004779;28;20211;-70
2022/04/09 05:01:20;;;;;;;0.10;0.10;;;3.40;99.90;12.80;88045.00;;;;4991077;28;20686;-70
2022/04/09 05:03:55;;;;;;;0.10;0.10;;;3.40;99.90;12.80;88045.00;;;;4991317;28;20199;-70
2022/04/09 05:06:31;;;;;;;0.08;0.08;;;3.50;99.90;12.80;88045.00;;;;4990938;28;20227;-71
2022/04/09 05:09:00;;;;;;;0.10;0.10;;;3.40;99.90;12.80;88045.00;;;;4991384;28;20200;-71
2022/04/09 05:11:40;;;;;;;0.10;0.10;;;3.50;99.90;12.80;88045.00;;;;5018929;28;20207;-71
2022/04/09 05:14:14;;;;;;;0.10;0.10;;;3.50;99.90;12.80;88045.00;;;;4975288;28;20204;-70
2022/04/09 05:16:50;;;;;;;0.10;0.10;;;3.50;99.90;12.80;88045.00;;;;4991277;28;20220;-73
2022/04/09 05:19:18;;;;;;;0.10;0.10;;;3.50;99.90;12.80;88045.00;;;;4974981;28;20204;-70
2022/04/09 05:21:55;;;;;;;0.10;0.10;;;3.50;99.90;12.80;88045.00;;;;4975216;28;20208;-69
2022/04/09 05:24:26;;;;;;;0.10;0.10;;;3.50;99.90;12.80;88045.00;;;;4991471;28;20196;-70
2022/04/09 05:26:54;;;;;;;0.10;0.10;;;3.40;99.90;12.80;88045.00;;;;5010727;28;20282;-70
2022/04/09 05:29:24;;;;;;;0.10;0.10;;;3.40;99.90;12.80;88045.00;;;;5004841;28;20216;-69
2022/04/09 05:31:53;;;;;;;0.13;0.13;;;3.50;99.90;12.80;88045.00;;;;4994764;28;20198;-69
2022/04/09 05:34:22;;;;;;;0.10;0.10;;;3.50;99.90;12.80;88045.00;;;;4994335;28;20543;-70
2022/04/09 05:36:50;;;;;;;0.10;0.10;;;3.50;99.90;12.80;88045.00;;;;4993894;28;20223;-70
2022/04/09 05:39:20;;;;;;;0.10;0.10;;;3.50;99.90;12.80;88045.00;;;;5012915;28;20200;-69
2022/04/09 05:41:53;;;;;;;0.10;0.10;;;3.50;99.90;12.80;88045.00;;;;4989977;28;20201;-69
2022/04/09 05:44:22;;;;;;;0.10;0.10;;;3.50;99.90;12.80;88045.00;;;;4993479;28;20248;-70
2022/04/09 05:46:50;;;;;;;0.20;0.20;;;3.50;99.90;12.80;88045.00;;;;5011312;28;20705;-70
2022/04/09 05:49:20;;;;;;;0.10;0.10;;;3.50;99.90;12.80;88045.00;;;;5011566;28;20638;-71
2022/04/09 05:51:48;;;;;;;0.10;0.10;;;3.60;99.90;12.80;88045.00;;;;4994405;28;20203;-70
2022/04/09 05:54:17;;;;;;;0.10;0.10;;;3.60;99.90;12.80;88045.00;;;;5008347;28;20227;-69
2022/04/09 05:56:52;;;;;;;0.10;0.10;;;3.60;99.90;12.80;88045.00;;;;4993739;28;20220;-68
2022/04/09 05:59:23;;;;;;;0.10;0.10;;;3.60;99.90;12.80;88045.00;;;;4996417;28;20286;-69
2022/04/09 06:01:51;;;;;;;0.10;0.10;;;3.60;99.90;12.80;88045.00;;;;5015462;28;20192;-69
2022/04/09 06:04:21;;;;;;;0.10;0.10;;;3.60;99.90;12.80;88045.00;;;;5015388;28;20250;-69
2022/04/09 06:06:53;;;;;;;0.10;0.10;;;3.70;99.90;12.80;88045.00;;;;4997024;28;20226;-69
2022/04/09 06:09:24;;;;;;;0.10;0.10;;;3.70;99.90;12.80;88045.00;;;;4997423;28;20199;-69
2022/04/09 06:12:06;;;;;;;0.00;0.00;;;3.60;99.90;12.80;88045.00;;;;4996438;28;20288;-68
2022/04/09 06:14:47;;;;;;;0.10;0.10;;;3.60;99.90;12.80;88045.00;;;;4998371;28;20286;-70
2022/04/09 06:17:15;;;;;;;0.10;0.10;;;3.60;99.90;12.80;88045.00;;;;4996741;28;20243;-69
2022/04/09 06:19:44;;;;;;;0.10;0.10;;;3.70;99.90;12.80;88045.00;;;;4996570;28;20946;-69
2022/04/09 06:22:13;;;;;;;0.10;0.10;;;3.70;99.90;12.80;88045.00;;;;5018241;28;20274;-70
2022/04/09 06:24:41;;;;;;;0.10;0.10;;;3.70;99.90;12.80;88045.00;;;;5014109;28;20200;-70
2022/04/09 06:27:13;;;;;;;0.10;0.10;;;3.70;99.90;12.80;88045.00;;;;5012459;28;20216;-71
2022/04/09 06:29:41;;;;;;;0.10;0.10;;;3.80;99.90;12.80;88045.00;;;;4997383;28;20260;-70
2022/04/09 06:32:09;;;;;;;0.10;0.10;;;3.70;99.90;12.80;88045.00;;;;4999711;28;20565;-70
2022/04/09 06:34:37;;;;;;;0.10;0.10;;;3.80;99.90;12.80;88045.00;;;;4996460;28;20250;-70
2022/04/09 06:37:10;;;;;;;0.10;0.10;;;3.80;99.90;12.80;88045.00;;;;5019391;28;20219;-70
2022/04/09 06:39:39;;;;;;;0.10;0.10;;;3.90;99.90;12.80;88045.00;;;;4996031;28;20306;-70
2022/04/09 06:42:07;;;;;;;0.10;0.10;;;3.90;99.90;12.80;88045.00;;;;4996853;28;20665;-70
2022/04/09 06:45:00;;;;;;;0.10;0.10;;;3.80;99.90;12.80;88045.00;;;;5014484;28;20208;-71
2022/04/09 06:47:40;;;;;;;0.10;0.10;;;3.90;99.90;12.80;88045.00;;;;4996367;28;20187;-70
2022/04/09 06:50:11;;;;;;;0.00;0.00;;;3.90;99.90;12.80;88045.00;;;;4997055;28;20224;-71
2022/04/09 06:52:41;;;;;;;0.10;0.10;;;3.90;99.90;12.80;88045.00;;;;4993783;28;20250;-70
2022/04/09 06:55:20;;;;;;;0.10;0.10;;;3.90;99.90;12.80;88045.00;;;;5006553;28;20203;-71
2022/04/09 06:57:50;;;;;;;0.10;0.10;;;3.90;99.90;12.80;88045.00;;;;5011079;28;20211;-71
2022/04/09 07:00:27;;;;;;;0.10;0.10;;;3.90;99.90;12.80;88045.00;;;;5026455;28;20203;-70
2022/04/09 07:02:55;;;;;;;0.10;0.10;;;4.00;99.90;12.80;88045.00;;;;5009354;28;20200;-73
2022/04/09 07:05:23;;;;;;;0.10;0.10;;;3.90;99.90;12.80;88045.00;;;;5022643;28;20258;-72
2022/04/09 07:07:51;;;;;;;0.10;0.10;;;4.00;99.90;12.80;88045.00;;;;5022280;28;20203;-71
2022/04/09 07:10:19;;;;;;;0.10;0.10;;;4.10;99.90;12.80;88045.00;;;;5022649;28;20208;-70
2022/04/09 07:12:47;;;;;;;0.10;0.10;;;4.10;99.90;12.80;88045.00;;;;5021313;28;20191;-70
2022/04/09 07:15:15;;;;;;;0.05;0.05;;;4.10;99.90;12.80;88045.00;;;;5016323;28;20279;-71
2022/04/09 07:17:44;;;;;;;0.10;0.10;;;4.10;99.90;12.80;88045.00;;;;5028451;28;20210;-70
2022/04/09 07:20:12;;;;;;;0.10;0.10;;;4.10;99.90;12.80;88045.00;;;;5013989;28;20242;-71
2022/04/09 07:22:41;;;;;;;0.10;0.10;;;4.20;99.90;12.80;88045.00;;;;5013609;28;20201;-71
2022/04/09 07:25:11;;;;;;;0.10;0.10;;;4.30;99.90;12.80;88045.00;;;;5011911;28;20200;-71
2022/04/09 07:27:41;;;;;;;0.10;0.10;;;4.30;99.90;12.80;88045.00;;;;5013049;28;20196;-72
2022/04/09 07:30:12;;;;;;;0.10;0.10;;;4.40;99.90;12.80;88045.00;;;;5012415;28;20195;-71
2022/04/09 07:32:41;;;;;;;0.10;0.10;;;4.40;99.90;12.80;88045.00;;;;5013081;28;20215;-71
2022/04/09 07:35:11;;;;;;;0.10;0.10;;;4.40;99.90;12.80;88045.00;;;;5013052;28;20200;-72
2022/04/09 07:37:41;;;;;;;0.10;0.10;;;4.40;99.90;12.80;88045.00;;;;5013346;28;20338;-71
2022/04/09 07:40:11;;;;;;;0.10;0.10;;;4.40;99.90;12.80;88045.00;;;;5010462;28;20657;-71
2022/04/09 07:42:42;;;;;;;0.10;0.10;;;4.40;99.90;12.80;88045.00;;;;5013312;28;20629;-71
2022/04/09 07:45:12;;;;;;;0.10;0.10;;;4.40;99.90;12.80;88045.00;;;;5012503;28;20725;-71
2022/04/09 07:47:40;;;;;;;0.10;0.10;;;4.50;99.90;12.80;88045.00;;;;5012159;28;20504;-71
2022/04/09 07:50:11;;;;;;;0.10;0.10;;;4.50;99.90;12.80;88045.00;;;;5011181;28;20230;-71
2022/04/09 07:52:42;;;;;;;0.10;0.10;;;4.60;99.90;12.80;88045.00;;;;5004577;28;20200;-71
2022/04/09 07:55:15;;;;;;;0.10;0.10;;;4.60;99.90;12.80;88045.00;;;;5011745;28;20242;-72
2022/04/09 07:57:43;;;;;;;0.03;0.03;;;4.70;99.90;12.80;88045.00;;;;5008787;28;20207;-71
2022/04/09 08:00:13;;;;;;;0.10;0.10;;;4.60;99.90;12.80;88045.00;;;;5011205;28;20665;-71
2022/04/09 08:02:41;;;;;;;0.10;0.10;;;4.70;99.90;12.80;88045.00;;;;5010026;28;20270;-71
2022/04/09 08:05:11;;;;;;;0.10;0.10;;;4.70;99.90;12.80;88045.00;;;;5001595;28;20196;-71
2022/04/09 08:07:39;;;;;;;0.10;0.10;;;4.70;99.90;12.80;88045.00;;;;5006643;28;20543;-71
2022/04/09 08:10:11;;;;;;;0.10;0.10;;;4.70;99.90;12.80;88045.00;;;;4993172;28;20193;-71
2022/04/09 08:12:39;;;;;;;0.10;0.10;;;4.70;99.90;12.80;88045.00;;;;5003691;28;20223;-72
2022/04/09 08:15:09;;;;;;;0.10;0.10;;;4.80;99.90;12.80;88045.00;;;;5010940;28;20197;-72
2022/04/09 08:17:38;;;;;;;0.10;0.10;;;4.70;99.90;12.80;88045.00;;;;5011181;28;20219;-72
2022/04/09 08:20:08;;;;;;;0.10;0.10;;;4.70;99.90;12.80;88045.00;;;;4992971;28;20246;-72
2022/04/09 08:22:38;;;;;;;0.10;0.10;;;4.80;99.90;12.80;88045.00;;;;5011596;28;20196;-73
2022/04/09 08:25:11;;;;;;;0.10;0.10;;;4.80;99.90;12.80;88045.00;;;;5011063;28;20577;-70
2022/04/09 08:27:39;;;;;;;0.10;0.10;;;4.90;99.90;12.80;88045.00;;;;4999218;28;20258;-72
2022/04/09 08:30:21;;;;;;;0.00;0.00;;;5.00;99.90;12.80;88045.00;;;;5010603;28;20711;-72
2022/04/09 08:32:50;;;;;;;0.10;0.10;;;5.20;99.90;12.80;88045.00;;;;5012523;28;20223;-71
2022/04/09 08:35:18;;;;;;;0.10;0.10;;;5.30;99.90;12.80;88045.00;;;;5012064;28;20195;-71
2022/04/09 08:37:54;;;;;;;0.10;0.10;;;5.30;99.90;12.80;88045.00;;;;4994738;28;20196;-72
2022/04/09 08:40:26;;;;;;;0.10;0.10;;;5.20;99.90;12.80;88045.00;;;;5005033;28;20196;-71
2022/04/09 08:42:56;;;;;;;0.10;0.10;;;5.20;99.90;12.80;88045.00;;;;5012555;28;20200;-72
2022/04/09 08:45:27;;;;;;;0.08;0.08;;;5.20;99.90;12.80;88045.00;;;;5011108;28;20200;-72
2022/04/09 08:47:55;;;;;;;0.10;0.10;;;5.20;99.90;12.80;88045.00;;;;5011182;28;20196;-72
2022/04/09 08:50:25;;;;;;;0.10;0.10;;;5.10;99.90;12.80;88045.00;;;;5012119;28;20595;-72
2022/04/09 08:52:55;;;;;;;0.10;0.10;;;5.20;99.90;12.80;88045.00;;;;5012014;28;20243;-72
2022/04/09 08:55:23;;;;;;;0.10;0.10;;;5.00;99.90;12.80;88045.00;;;;5004181;28;20569;-73
2022/04/09 08:57:51;;;;;;;0.10;0.10;;;5.10;99.90;12.80;88045.00;;;;5007675;28;20203;-72
2022/04/09 09:00:20;;;;;;;0.08;0.08;;;5.00;99.90;12.80;88045.00;;;;5011470;28;20574;-72
2022/04/09 09:02:56;;;;;;;0.10;0.10;;;5.10;99.90;12.80;88045.00;;;;5003520;28;20204;-71
2022/04/09 09:05:33;;;;;;;0.10;0.10;;;5.20;99.90;12.80;88045.00;;;;5003132;28;20204;-72
2022/04/09 09:08:03;;;;;;;0.10;0.10;;;5.40;99.90;12.80;88045.00;;;;5012991;28;20706;-70
2022/04/09 09:10:32;;;;;;;0.10;0.10;;;5.40;99.90;12.80;88045.00;;;;5012504;28;20187;-71
2022/04/09 09:13:05;;;;;;;0.10;0.10;;;5.50;99.90;12.80;88045.00;;;;5011309;28;20231;-69
2022/04/09 09:15:47;;;;;;;0.10;0.10;;;5.60;99.90;12.80;88045.00;;;;5011993;28;20216;-70
2022/04/09 09:18:21;;;;;;;0.10;0.10;;;5.60;99.90;12.80;88045.00;;;;5012114;28;20266;-70
2022/04/09 09:20:51;;;;;;;0.10;0.10;;;5.60;99.90;12.80;88045.00;;;;5012099;28;20567;-70
2022/04/09 09:23:26;;;;;;;0.10;0.10;;;5.50;99.90;12.80;88045.00;;;;5011599;28;20192;-70
2022/04/09 09:25:57;;;;;;;0.00;0.00;;;5.50;99.90;12.80;88045.00;;;;5012002;28;20222;-70
2022/04/09 09:28:27;;;;;;;0.08;0.08;;;5.40;99.90;12.80;88045.00;;;;5011708;28;20188;-70
2022/04/09 09:30:57;;;;;;;0.10;0.10;;;5.40;99.90;12.80;88045.00;;;;5011041;28;20196;-71
2022/04/09 09:33:26;;;;;;;0.10;0.10;;;5.30;99.90;12.80;88045.00;;;;5013615;28;20303;-70
2022/04/09 09:36:14;;;;;;;0.03;0.03;;;5.40;99.90;12.80;88045.00;;;;5015634;28;20243;-71
2022/04/09 09:38:45;;;;;;;0.10;0.10;;;5.60;99.90;12.80;88045.00;;;;5018401;28;20184;-70
2022/04/09 09:41:24;;;;;;;0.10;0.10;;;5.60;99.90;12.80;88045.00;;;;5014968;28;20196;-70
2022/04/09 09:44:03;;;;;;;0.10;0.10;;;5.60;99.90;12.80;88045.00;;;;5016929;28;20195;-71
2022/04/09 09:46:32;;;;;;;0.10;0.10;;;5.60;99.90;12.80;88045.00;;;;5015247;28;20211;-70
2022/04/09 09:49:00;;;;;;;0.10;0.10;;;5.70;99.90;12.80;88045.00;;;;5015966;28;20188;-71
2022/04/09 09:51:28;;;;;;;0.10;0.10;;;5.80;99.90;12.80;88045.00;;;;5015217;28;20661;-70
2022/04/09 09:54:07;;;;;;;0.10;0.10;;;5.90;99.90;12.80;88045.00;;;;5015690;28;20238;-71
2022/04/09 09:56:39;;;;;;;0.10;0.10;;;6.00;99.90;12.80;88045.00;;;;5006781;28;20224;-70
2022/04/09 09:59:09;;;;;;;0.10;0.10;;;6.00;99.90;12.80;88045.00;;;;5015252;28;20195;-70
2022/04/09 10:01:40;;;;;;;0.00;0.00;;;5.90;99.90;12.80;88045.00;;;;5017760;28;20279;-70
2022/04/09 10:04:11;;;;;;;0.05;0.05;;;5.90;99.90;12.80;88045.00;;;;5017484;28;20196;-70
2022/04/09 10:06:42;;;;;;;0.10;0.10;;;6.00;99.90;12.80;88045.00;;;;5017378;28;20222;-70
2022/04/09 10:09:14;;;;;;;0.10;0.10;;;5.90;99.90;12.80;88045.00;;;;5000049;28;20627;-70
2022/04/09 10:11:47;;;;;;;0.10;0.10;;;5.90;99.90;12.80;88045.00;;;;5015341;28;20556;-70
2022/04/09 10:14:21;;;;;;;0.10;0.10;;;6.10;99.90;12.80;88045.00;;;;5007983;28;20251;-70
2022/04/09 10:16:51;;;;;;;0.10;0.10;;;6.00;99.90;12.80;88045.00;;;;5015390;28;20583;-70
2022/04/09 10:19:24;;;;;;;0.08;0.08;;;6.00;99.90;12.80;88045.00;;;;5015290;28;20677;-71
2022/04/09 10:21:53;;;;;;;0.10;0.10;;;6.00;99.90;12.80;88045.00;;;;5016927;28;20188;-70
2022/04/09 10:24:27;;;;;;;0.10;0.10;;;6.10;99.90;12.80;88045.00;;;;5015559;28;20192;-70
2022/04/09 10:26:58;;;;;;;0.10;0.10;;;6.10;99.90;12.80;88045.00;;;;5015985;28;20216;-70
2022/04/09 10:29:26;;;;;;;0.08;0.08;;;6.20;99.90;12.80;88045.00;;;;5014550;28;20254;-70
2022/04/09 10:31:53;;;;;;;0.10;0.10;;;6.10;99.90;12.80;88045.00;;;;5015742;28;20192;-70
2022/04/09 10:34:21;;;;;;;0.10;0.10;;;6.00;99.90;12.80;88045.00;;;;5014561;28;20665;-70
2022/04/09 10:37:02;;;;;;;0.10;0.10;;;5.60;99.90;12.80;88045.00;;;;5016171;28;20219;-70
2022/04/09 10:39:45;;;;;;;0.10;0.10;;;5.50;99.90;12.80;88045.00;;;;5013708;28;20203;-69
2022/04/09 10:42:49;;;;;;;0.10;0.10;;;5.40;99.90;12.80;88045.00;;;;5006787;28;20200;-70
2022/04/09 10:45:18;;;;;;;0.10;0.10;;;5.40;99.90;12.80;88045.00;;;;5014161;28;20183;-70
2022/04/09 10:48:07;;;;;;;0.10;0.10;;;5.20;99.90;12.80;88045.00;;;;5014179;28;20287;-70
2022/04/09 10:50:58;;;;;;;0.10;0.10;;;5.30;99.90;12.80;88045.00;;;;5010725;28;20204;-70
2022/04/09 10:53:29;;;;;;;0.10;0.10;;;5.30;99.90;12.80;88045.00;;;;5007584;28;20227;-71
2022/04/09 10:56:20;;;;;;;0.10;0.10;;;5.20;99.90;12.80;88045.00;;;;5005374;28;20218;-71
2022/04/09 10:59:09;;;;;;;0.05;0.05;;;5.30;99.90;12.80;88045.00;;;;5012704;28;20196;-71
2022/04/09 11:01:54;;;;;;;0.03;0.03;;;5.80;99.90;12.80;88045.00;;;;5013262;28;20722;-70
2022/04/09 11:04:43;;;;;;;0.10;0.10;;;6.30;99.90;12.80;88045.00;;;;5002417;28;20199;-70
2022/04/09 11:07:15;;;;;;;0.10;0.10;;;6.40;99.90;12.80;88045.00;;;;5013788;28;20234;-71
2022/04/09 11:09:54;;;;;;;0.05;0.05;;;6.70;99.90;12.80;88045.00;;;;5014164;28;20223;-71
2022/04/09 11:12:27;;;;;;;0.10;0.10;;;6.80;99.90;12.80;88045.00;;;;5012658;28;20215;-71
2022/04/09 11:14:57;;;;;;;0.10;0.10;;;7.00;99.90;12.80;88045.00;;;;5013905;28;20196;-70
2022/04/09 11:17:29;;;;;;;0.10;0.10;;;7.00;99.90;12.80;88045.00;;;;5013628;28;20223;-70
2022/04/09 11:20:02;;;;;;;0.10;0.10;;;6.90;99.90;12.80;88045.00;;;;5014069;28;20242;-70